createdAt,value
2023-04-16T00:00:13.899Z,98.1753
2023-04-16T00:01:14.507Z,98.2038
2023-04-16T00:02:15.161Z,98.2250
2023-04-16T00:03:15.956Z,98.2379
2023-04-16T00:04:17.101Z,98.2369
2023-04-16T00:05:18.113Z,98.2403
2023-04-16T00:06:18.687Z,98.2288
2023-04-16T00:07:19.257Z,98.1980
2023-04-16T00:08:19.885Z,98.1365
2023-04-16T00:09:20.465Z,98.1001
2023-04-16T00:10:20.962Z,98.0695
2023-04-16T00:11:21.573Z,98.0613
2023-04-16T00:12:22.165Z,98.0387
2023-04-16T00:13:22.753Z,98.0117
2023-04-16T00:14:23.278Z,97.9844
2023-04-16T00:15:23.807Z,97.9852
2023-04-16T00:16:24.536Z,97.9788
2023-04-16T00:17:25.131Z,98.0021
2023-04-16T00:18:25.703Z,98.0374
2023-04-16T00:19:26.231Z,98.0271
2023-04-16T00:20:26.835Z,97.9934
2023-04-16T00:21:27.416Z,97.9782
2023-04-16T00:22:28.016Z,97.9576
2023-04-16T00:23:28.580Z,97.8843
2023-04-16T00:24:29.252Z,97.8757
2023-04-16T00:25:29.869Z,97.8906
2023-04-16T00:26:30.469Z,97.8996
2023-04-16T00:27:31.060Z,97.9045
2023-04-16T00:28:31.632Z,97.8606
2023-04-16T00:29:32.229Z,97.8531
2023-04-16T00:30:32.750Z,97.8481
2023-04-16T00:31:33.232Z,97.8422
2023-04-16T00:32:33.833Z,97.8580
2023-04-16T00:33:34.392Z,97.8868
2023-04-16T00:34:34.916Z,97.8812
2023-04-16T00:35:35.470Z,97.8738
2023-04-16T00:36:35.965Z,97.8851
2023-04-16T00:37:36.573Z,97.8986
2023-04-16T00:38:37.077Z,97.8901
2023-04-16T00:39:37.673Z,97.8825
2023-04-16T00:40:38.275Z,97.8840
2023-04-16T00:41:38.782Z,97.9164
2023-04-16T00:42:39.424Z,97.9400
2023-04-16T00:43:40.232Z,97.9409
2023-04-16T00:44:40.805Z,97.9640
2023-04-16T00:45:41.350Z,97.9930
2023-04-16T00:46:41.981Z,98.0160
2023-04-16T00:47:42.668Z,98.0496
2023-04-16T00:48:43.266Z,98.0803
2023-04-16T00:49:43.827Z,98.0725
2023-04-16T00:50:44.392Z,98.0658
2023-04-16T00:51:44.886Z,98.0731
2023-04-16T00:52:45.508Z,98.0963
2023-04-16T00:53:46.060Z,98.1101
2023-04-16T00:54:46.604Z,98.0878
2023-04-16T00:55:47.167Z,98.0717
2023-04-16T00:56:47.804Z,98.0424
2023-04-16T00:57:48.345Z,98.0309
2023-04-16T00:58:48.965Z,98.0252
2023-04-16T00:59:49.556Z,97.9983
2023-04-16T01:00:50.117Z,98.0051
2023-04-16T01:01:50.969Z,98.0413
2023-04-16T01:02:51.815Z,98.0687
2023-04-16T01:03:52.713Z,98.0635
2023-04-16T01:04:53.597Z,98.0271
2023-04-16T01:05:54.147Z,98.0323
2023-04-16T01:06:54.694Z,98.0452
2023-04-16T01:07:55.308Z,98.0750
2023-04-16T01:08:55.853Z,98.0665
2023-04-16T01:09:56.460Z,98.0748
2023-04-16T01:10:56.998Z,98.1068
2023-04-16T01:11:57.601Z,98.1160
2023-04-16T01:12:58.266Z,98.1147
2023-04-16T01:13:58.815Z,98.1292
2023-04-16T01:14:59.351Z,98.1344
2023-04-16T01:16:00.018Z,98.1369
2023-04-16T01:17:00.635Z,98.1545
2023-04-16T01:18:01.249Z,98.1568
2023-04-16T01:19:01.836Z,98.1539
2023-04-16T01:20:02.422Z,98.1303
2023-04-16T01:21:03.041Z,98.1243
2023-04-16T01:22:03.573Z,98.1052
2023-04-16T01:23:04.161Z,98.0726
2023-04-16T01:24:04.705Z,98.0569
2023-04-16T01:25:05.288Z,98.0413
2023-04-16T01:26:05.845Z,98.0196
2023-04-16T01:27:06.420Z,97.9844
2023-04-16T01:28:06.973Z,97.9129
2023-04-16T01:29:07.832Z,97.9281
2023-04-16T01:30:08.574Z,97.9451
2023-04-16T01:31:09.132Z,97.9354
2023-04-16T01:32:09.699Z,97.8952
2023-04-16T01:33:10.275Z,97.8619
2023-04-16T01:34:10.822Z,97.8572
2023-04-16T01:35:11.335Z,97.8412
2023-04-16T01:36:11.939Z,97.8275
2023-04-16T01:37:12.489Z,97.8384
2023-04-16T01:38:13.096Z,97.8817
2023-04-16T01:39:13.668Z,97.9066
2023-04-16T01:40:14.222Z,97.8631
2023-04-16T01:41:14.714Z,97.8637
2023-04-16T01:42:15.258Z,97.9002
2023-04-16T01:43:15.881Z,97.9160
2023-04-16T01:44:16.432Z,97.9243
2023-04-16T01:45:16.973Z,97.9448
2023-04-16T01:46:17.520Z,97.9683
2023-04-16T01:47:18.076Z,98.0015
2023-04-16T01:48:18.645Z,98.0306
2023-04-16T01:49:19.197Z,98.0679
2023-04-16T01:50:19.747Z,98.1097
2023-04-16T01:51:20.353Z,98.1567
2023-04-16T01:52:20.901Z,98.1782
2023-04-16T01:53:21.518Z,98.1753
2023-04-16T01:54:22.087Z,98.1568
2023-04-16T01:55:22.629Z,98.1784
2023-04-16T01:56:23.220Z,98.2076
2023-04-16T01:57:23.768Z,98.2266
2023-04-16T01:58:24.427Z,98.2516
2023-04-16T01:59:25.014Z,98.2691
2023-04-16T02:00:25.582Z,98.2922
2023-04-16T02:01:26.176Z,98.2803
2023-04-16T02:02:26.962Z,98.2668
2023-04-16T02:03:27.739Z,98.2779
2023-04-16T02:04:28.398Z,98.2863
2023-04-16T02:05:28.955Z,98.3126
2023-04-16T02:06:29.607Z,98.3442
2023-04-16T02:07:30.186Z,98.3745
2023-04-16T02:08:30.872Z,98.3890
2023-04-16T02:09:31.477Z,98.3713
2023-04-16T02:10:32.086Z,98.3224
2023-04-16T02:11:32.716Z,98.2876
2023-04-16T02:12:33.332Z,98.2775
2023-04-16T02:13:33.981Z,98.2522
2023-04-16T02:14:34.561Z,98.2813
2023-04-16T02:15:35.149Z,98.3114
2023-04-16T02:16:35.974Z,98.3387
2023-04-16T02:17:36.648Z,98.3295
2023-04-16T02:18:37.262Z,98.3196
2023-04-16T02:19:37.883Z,98.2826
2023-04-16T02:20:38.542Z,98.2847
2023-04-16T02:21:39.228Z,98.2898
2023-04-16T02:22:39.791Z,98.3003
2023-04-16T02:23:40.497Z,98.3033
2023-04-16T02:24:41.214Z,98.2999
2023-04-16T02:25:41.834Z,98.2941
2023-04-16T02:26:42.444Z,98.2990
2023-04-16T02:27:43.177Z,98.2988
2023-04-16T02:28:43.853Z,98.3018
2023-04-16T02:29:44.485Z,98.2941
2023-04-16T02:30:45.120Z,98.2719
2023-04-16T02:31:45.811Z,98.2704
2023-04-16T02:32:46.550Z,98.2922
2023-04-16T02:33:47.096Z,98.3021
2023-04-16T02:34:47.874Z,98.3171
2023-04-16T02:35:48.443Z,98.3156
2023-04-16T02:36:49.153Z,98.3504
2023-04-16T02:37:49.753Z,98.3889
2023-04-16T02:38:50.427Z,98.4366
2023-04-16T02:39:51.138Z,98.4984
2023-04-16T02:40:51.766Z,98.5322
2023-04-16T02:41:52.374Z,98.5382
2023-04-16T02:42:52.939Z,98.5385
2023-04-16T02:43:53.509Z,98.5368
2023-04-16T02:44:54.220Z,98.5269
2023-04-16T02:45:55.344Z,98.5335
2023-04-16T02:46:55.969Z,98.5610
2023-04-16T02:47:56.626Z,98.5732
2023-04-16T02:48:57.337Z,98.5698
2023-04-16T02:49:57.953Z,98.5643
2023-04-16T02:50:58.672Z,98.5657
2023-04-16T02:51:59.320Z,98.5596
2023-04-16T02:52:59.936Z,98.5485
2023-04-16T02:54:00.596Z,98.5330
2023-04-16T02:55:01.205Z,98.5182
2023-04-16T02:56:01.886Z,98.4645
2023-04-16T02:57:02.573Z,98.4126
2023-04-16T02:58:03.178Z,98.3794
2023-04-16T02:59:03.842Z,98.3574
2023-04-16T03:00:04.470Z,98.3577
2023-04-16T03:01:05.161Z,98.3834
2023-04-16T03:02:05.798Z,98.4157
2023-04-16T03:03:06.398Z,98.4151
2023-04-16T03:04:07.073Z,98.4182
2023-04-16T03:05:07.712Z,98.4446
2023-04-16T03:06:08.399Z,98.4821
2023-04-16T03:07:09.005Z,98.4991
2023-04-16T03:08:09.604Z,98.5575
2023-04-16T03:09:10.923Z,98.6027
2023-04-16T03:10:11.898Z,98.6099
2023-04-16T03:11:12.523Z,98.6212
2023-04-16T03:12:13.134Z,98.6563
2023-04-16T03:13:13.755Z,98.6816
2023-04-16T03:14:14.367Z,98.6853
2023-04-16T03:15:15.009Z,98.6871
2023-04-16T03:16:15.794Z,98.6946
2023-04-16T03:17:16.570Z,98.7388
2023-04-16T03:18:17.193Z,98.7560
2023-04-16T03:19:17.832Z,98.7768
2023-04-16T03:20:18.464Z,98.7889
2023-04-16T03:21:19.046Z,98.7796
2023-04-16T03:22:20.157Z,98.7829
2023-04-16T03:23:21.022Z,98.7839
2023-04-16T03:24:21.625Z,98.7964
2023-04-16T03:25:22.292Z,98.8044
2023-04-16T03:26:22.874Z,98.8040
2023-04-16T03:27:23.549Z,98.8231
2023-04-16T03:28:24.162Z,98.8302
2023-04-16T03:29:24.777Z,98.8400
2023-04-16T03:30:25.411Z,98.8397
2023-04-16T03:31:26.089Z,98.8389
2023-04-16T03:32:26.772Z,98.8357
2023-04-16T03:33:27.418Z,98.7986
2023-04-16T03:34:28.121Z,98.7602
2023-04-16T03:35:28.758Z,98.7481
2023-04-16T03:36:29.402Z,98.7608
2023-04-16T03:37:29.998Z,98.7808
2023-04-16T03:38:30.584Z,98.7841
2023-04-16T03:39:31.217Z,98.7892
2023-04-16T03:40:31.840Z,98.7725
2023-04-16T03:41:32.487Z,98.7525
2023-04-16T03:42:33.070Z,98.7247
2023-04-16T03:43:33.682Z,98.6663
2023-04-16T03:44:34.267Z,98.6246
2023-04-16T03:45:34.864Z,98.6006
2023-04-16T03:46:35.481Z,98.5911
2023-04-16T03:47:36.147Z,98.5788
2023-04-16T03:48:36.774Z,98.5562
2023-04-16T03:49:37.488Z,98.5558
2023-04-16T03:50:38.116Z,98.5273
2023-04-16T03:51:38.696Z,98.5244
2023-04-16T03:52:39.323Z,98.5431
2023-04-16T03:53:39.959Z,98.5522
2023-04-16T03:54:40.626Z,98.5748
2023-04-16T03:55:41.251Z,98.5978
2023-04-16T03:56:41.852Z,98.6279
2023-04-16T03:57:42.481Z,98.6750
2023-04-16T03:58:43.118Z,98.7173
2023-04-16T03:59:43.780Z,98.7525
2023-04-16T04:00:44.431Z,98.7908
2023-04-16T04:01:45.058Z,98.8284
2023-04-16T04:02:45.812Z,98.8665
2023-04-16T04:03:46.740Z,98.8943
2023-04-16T04:04:47.838Z,98.9167
2023-04-16T04:05:48.528Z,98.9424
2023-04-16T04:06:49.168Z,98.9492
2023-04-16T04:07:49.747Z,98.9377
2023-04-16T04:08:50.366Z,98.9195
2023-04-16T04:09:51.045Z,98.9221
2023-04-16T04:10:51.644Z,98.9234
2023-04-16T04:11:52.331Z,98.9376
2023-04-16T04:12:52.942Z,98.9469
2023-04-16T04:13:53.587Z,98.9400
2023-04-16T04:14:54.268Z,98.9298
2023-04-16T04:15:54.907Z,98.9291
2023-04-16T04:16:55.567Z,98.9355
2023-04-16T04:17:56.249Z,98.9457
2023-04-16T04:18:56.893Z,98.9626
2023-04-16T04:20:01.251Z,98.9847
2023-04-16T04:21:00.153Z,99.0022
2023-04-16T04:22:00.785Z,99.0312
2023-04-16T04:23:01.368Z,99.0665
2023-04-16T04:24:02.051Z,99.0988
2023-04-16T04:25:02.886Z,99.1153
2023-04-16T04:26:03.527Z,99.1056
2023-04-16T04:27:04.184Z,99.1059
2023-04-16T04:28:04.898Z,99.1064
2023-04-16T04:29:05.567Z,99.1252
2023-04-16T04:30:06.218Z,99.1288
2023-04-16T04:31:06.845Z,99.1466
2023-04-16T04:32:07.596Z,99.1465
2023-04-16T04:33:08.546Z,99.1579
2023-04-16T04:34:09.185Z,99.1638
2023-04-16T04:35:09.856Z,99.1721
2023-04-16T04:36:10.519Z,99.1897
2023-04-16T04:37:11.185Z,99.1877
2023-04-16T04:38:13.180Z,99.1996
2023-04-16T04:39:12.859Z,99.2095
2023-04-16T04:40:13.556Z,99.2207
2023-04-16T04:41:14.244Z,99.2177
2023-04-16T04:42:14.839Z,99.2094
2023-04-16T04:43:15.493Z,99.2039
2023-04-16T04:44:16.172Z,99.1970
2023-04-16T04:45:16.857Z,99.1890
2023-04-16T04:46:17.524Z,99.1672
2023-04-16T04:47:18.175Z,99.1576
2023-04-16T04:48:18.893Z,99.1533
2023-04-16T04:49:19.498Z,99.1495
2023-04-16T04:50:20.190Z,99.1505
2023-04-16T04:51:20.880Z,99.1656
2023-04-16T04:52:21.473Z,99.1724
2023-04-16T04:53:22.101Z,99.1790
2023-04-16T04:54:22.678Z,99.1846
2023-04-16T04:55:23.453Z,99.1935
2023-04-16T04:56:24.105Z,99.2073
2023-04-16T04:57:24.837Z,99.2187
2023-04-16T04:58:25.413Z,99.2231
2023-04-16T04:59:26.088Z,99.2316
2023-04-16T05:00:26.744Z,99.2384
2023-04-16T05:01:27.479Z,99.2465
2023-04-16T05:02:28.175Z,99.2454
2023-04-16T05:03:28.889Z,99.2609
2023-04-16T05:04:29.546Z,99.2782
2023-04-16T05:05:30.180Z,99.2778
2023-04-16T05:06:30.946Z,99.2775
2023-04-16T05:07:31.558Z,99.2698
2023-04-16T05:08:32.186Z,99.2867
2023-04-16T05:09:32.824Z,99.2885
2023-04-16T05:10:33.420Z,99.3180
2023-04-16T05:11:34.079Z,99.3417
2023-04-16T05:12:34.671Z,99.3417
2023-04-16T05:13:35.315Z,99.3537
2023-04-16T05:14:35.964Z,99.3680
2023-04-16T05:15:36.567Z,99.3801
2023-04-16T05:16:37.344Z,99.3902
2023-04-16T05:17:37.958Z,99.3803
2023-04-16T05:18:38.596Z,99.3877
2023-04-16T05:19:39.197Z,99.3960
2023-04-16T05:20:39.836Z,99.4155
2023-04-16T05:21:40.519Z,99.4174
2023-04-16T05:22:41.169Z,99.4117
2023-04-16T05:23:41.817Z,99.4119
2023-04-16T05:24:42.472Z,99.4095
2023-04-16T05:25:43.129Z,99.4233
2023-04-16T05:26:43.833Z,99.4257
2023-04-16T05:27:44.460Z,99.4255
2023-04-16T05:28:45.064Z,99.4402
2023-04-16T05:29:45.787Z,99.4243
2023-04-16T05:30:46.410Z,99.4318
2023-04-16T05:31:47.172Z,99.4296
2023-04-16T05:32:47.824Z,99.4289
2023-04-16T05:33:48.394Z,99.4294
2023-04-16T05:34:49.073Z,99.4302
2023-04-16T05:35:49.719Z,99.4349
2023-04-16T05:36:50.439Z,99.4283
2023-04-16T05:37:51.041Z,99.4393
2023-04-16T05:38:51.743Z,99.4254
2023-04-16T05:39:52.580Z,99.4161
2023-04-16T05:40:53.238Z,99.3971
2023-04-16T05:41:53.852Z,99.4044
2023-04-16T05:42:54.639Z,99.4079
2023-04-16T05:43:55.332Z,99.3963
2023-04-16T05:44:56.038Z,99.3868
2023-04-16T05:45:56.837Z,99.3759
2023-04-16T05:46:57.538Z,99.3670
2023-04-16T05:47:58.180Z,99.3462
2023-04-16T05:48:58.832Z,99.3484
2023-04-16T05:49:59.411Z,99.3575
2023-04-16T05:51:00.053Z,99.3588
2023-04-16T05:52:00.658Z,99.3706
2023-04-16T05:53:01.345Z,99.3626
2023-04-16T05:54:02.042Z,99.3487
2023-04-16T05:55:02.646Z,99.3326
2023-04-16T05:56:03.328Z,99.3190
2023-04-16T05:57:03.949Z,99.3151
2023-04-16T05:58:04.538Z,99.3441
2023-04-16T05:59:05.237Z,99.3408
2023-04-16T06:00:05.870Z,99.3512
2023-04-16T06:01:06.477Z,99.3506
2023-04-16T06:02:07.198Z,99.3645
2023-04-16T06:03:08.030Z,99.3906
2023-04-16T06:04:08.996Z,99.4258
2023-04-16T06:05:09.702Z,99.4407
2023-04-16T06:06:10.296Z,99.4397
2023-04-16T06:07:10.933Z,99.4383
2023-04-16T06:08:11.607Z,99.4226
2023-04-16T06:09:12.317Z,99.4198
2023-04-16T06:10:12.970Z,99.4111
2023-04-16T06:11:13.587Z,99.4029
2023-04-16T06:12:14.270Z,99.3851
2023-04-16T06:13:14.851Z,99.3485
2023-04-16T06:14:15.500Z,99.3457
2023-04-16T06:15:16.194Z,99.3180
2023-04-16T06:16:16.883Z,99.3127
2023-04-16T06:17:17.618Z,99.2832
2023-04-16T06:18:18.250Z,99.2846
2023-04-16T06:19:18.986Z,99.2940
2023-04-16T06:20:19.621Z,99.3046
2023-04-16T06:21:20.232Z,99.3080
2023-04-16T06:22:20.918Z,99.3212
2023-04-16T06:23:21.564Z,99.2746
2023-04-16T06:24:22.172Z,99.2512
2023-04-16T06:25:22.863Z,99.2151
2023-04-16T06:26:23.482Z,99.1972
2023-04-16T06:27:24.203Z,99.2163
2023-04-16T06:28:24.847Z,99.2505
2023-04-16T06:29:33.717Z,99.2440
2023-04-16T06:30:26.891Z,99.2314
2023-04-16T06:31:27.596Z,99.1929
2023-04-16T06:32:28.479Z,99.1656
2023-04-16T06:33:29.234Z,99.1188
2023-04-16T06:34:29.887Z,99.1049
2023-04-16T06:35:30.518Z,99.0991
2023-04-16T06:36:31.213Z,99.0795
2023-04-16T06:37:31.863Z,99.0636
2023-04-16T06:38:32.493Z,99.0401
2023-04-16T06:39:33.432Z,99.0174
2023-04-16T06:40:34.088Z,98.9954
2023-04-16T06:41:34.750Z,98.9766
2023-04-16T06:42:35.418Z,98.9781
2023-04-16T06:43:36.053Z,98.9615
2023-04-16T06:44:36.644Z,98.9427
2023-04-16T06:45:37.270Z,98.9504
2023-04-16T06:46:37.994Z,98.9270
2023-04-16T06:47:38.759Z,98.9462
2023-04-16T06:48:39.384Z,98.9648
2023-04-16T06:49:39.977Z,98.9715
2023-04-16T06:50:40.600Z,98.9857
2023-04-16T06:51:41.207Z,99.0223
2023-04-16T06:52:41.952Z,99.0340
2023-04-16T06:53:42.584Z,99.0537
2023-04-16T06:54:43.345Z,99.0686
2023-04-16T06:55:43.993Z,99.0850
2023-04-16T06:56:44.750Z,99.1135
2023-04-16T06:57:45.475Z,99.1406
2023-04-16T06:58:46.162Z,99.1554
2023-04-16T06:59:46.834Z,99.2018
2023-04-16T07:00:47.693Z,99.2175
2023-04-16T07:01:48.534Z,99.2463
2023-04-16T07:02:49.391Z,99.2682
2023-04-16T07:03:50.322Z,99.2832
2023-04-16T07:04:51.513Z,99.2745
2023-04-16T07:05:52.174Z,99.2925
2023-04-16T07:06:52.899Z,99.2934
2023-04-16T07:07:53.635Z,99.3098
2023-04-16T07:08:54.384Z,99.3141
2023-04-16T07:09:55.087Z,99.2975
2023-04-16T07:10:55.823Z,99.2768
2023-04-16T07:11:56.609Z,99.2899
2023-04-16T07:12:57.399Z,99.3220
2023-04-16T07:13:58.088Z,99.3261
2023-04-16T07:14:58.761Z,99.3294
2023-04-16T07:15:59.461Z,99.3399
2023-04-16T07:17:00.129Z,99.3202
2023-04-16T07:18:00.855Z,99.3029
2023-04-16T07:19:01.576Z,99.3011
2023-04-16T07:20:02.210Z,99.2865
2023-04-16T07:21:02.897Z,99.3044
2023-04-16T07:22:03.835Z,99.2993
2023-04-16T07:23:04.539Z,99.2849
2023-04-16T07:24:05.256Z,99.2796
2023-04-16T07:25:05.865Z,99.2343
2023-04-16T07:26:06.473Z,99.2211
2023-04-16T07:27:07.135Z,99.2083
2023-04-16T07:28:07.827Z,99.2072
2023-04-16T07:29:08.800Z,99.1998
2023-04-16T07:30:09.791Z,99.1568
2023-04-16T07:31:10.452Z,99.1716
2023-04-16T07:32:12.445Z,99.1803
2023-04-16T07:33:12.153Z,99.1972
2023-04-16T07:34:12.933Z,99.1801
2023-04-16T07:35:13.593Z,99.1413
2023-04-16T07:36:14.259Z,99.1182
2023-04-16T07:37:14.927Z,99.1203
2023-04-16T07:38:15.714Z,99.1089
2023-04-16T07:39:16.438Z,99.0849
2023-04-16T07:40:17.175Z,99.0535
2023-04-16T07:41:17.872Z,99.0011
2023-04-16T07:42:18.550Z,98.9669
2023-04-16T07:43:19.357Z,98.9485
2023-04-16T07:44:20.088Z,98.9426
2023-04-16T07:45:20.774Z,98.9517
2023-04-16T07:46:21.853Z,98.9477
2023-04-16T07:47:22.885Z,98.9021
2023-04-16T07:48:23.674Z,98.8948
2023-04-16T07:49:24.390Z,98.9116
2023-04-16T07:50:25.083Z,98.8502
2023-04-16T07:51:25.799Z,98.8015
2023-04-16T07:52:26.418Z,98.7793
2023-04-16T07:53:27.184Z,98.7544
2023-04-16T07:54:29.084Z,98.7305
2023-04-16T07:55:30.063Z,98.7080
2023-04-16T07:56:30.797Z,98.7123
2023-04-16T07:57:31.492Z,98.6960
2023-04-16T07:58:32.283Z,98.6668
2023-04-16T07:59:32.996Z,98.6848
2023-04-16T08:00:33.707Z,98.6968
2023-04-16T08:01:34.403Z,98.7228
2023-04-16T08:02:35.118Z,98.7678
2023-04-16T08:03:36.348Z,98.7900
2023-04-16T08:04:37.256Z,98.8044
2023-04-16T08:05:38.280Z,98.8445
2023-04-16T08:06:39.039Z,98.8891
2023-04-16T08:07:39.696Z,98.8864
2023-04-16T08:08:40.349Z,98.8319
2023-04-16T08:09:41.115Z,98.7730
2023-04-16T08:10:41.719Z,98.7409
2023-04-16T08:11:42.366Z,98.7388
2023-04-16T08:12:42.994Z,98.7220
2023-04-16T08:13:43.650Z,98.7305
2023-04-16T08:14:44.323Z,98.7418
2023-04-16T08:15:45.136Z,98.7669
2023-04-16T08:16:45.944Z,98.7985
2023-04-16T08:17:46.636Z,98.8328
2023-04-16T08:18:47.369Z,98.8716
2023-04-16T08:19:48.095Z,98.8523
2023-04-16T08:20:48.758Z,98.8301
2023-04-16T08:21:49.630Z,98.8119
2023-04-16T08:22:50.439Z,98.8218
2023-04-16T08:23:51.085Z,98.8148
2023-04-16T08:24:51.763Z,98.8113
2023-04-16T08:25:53.112Z,98.8082
2023-04-16T08:26:53.857Z,98.8178
2023-04-16T08:27:54.600Z,98.8500
2023-04-16T08:28:55.232Z,98.8643
2023-04-16T08:29:55.927Z,98.8828
2023-04-16T08:30:56.624Z,98.8653
2023-04-16T08:31:57.304Z,98.8763
2023-04-16T08:32:58.001Z,98.8756
2023-04-16T08:33:58.722Z,98.8622
2023-04-16T08:34:59.442Z,98.8298
2023-04-16T08:36:00.116Z,98.8089
2023-04-16T08:37:00.761Z,98.8109
2023-04-16T08:38:02.598Z,98.7768
2023-04-16T08:39:03.443Z,98.7533
2023-04-16T08:40:04.161Z,98.7154
2023-04-16T08:41:04.802Z,98.6873
2023-04-16T08:42:05.439Z,98.6876
2023-04-16T08:43:06.055Z,98.6378
2023-04-16T08:44:06.838Z,98.5996
2023-04-16T08:45:07.444Z,98.5589
2023-04-16T08:46:08.160Z,98.5539
2023-04-16T08:47:08.882Z,98.5778
2023-04-16T08:48:09.807Z,98.5807
2023-04-16T08:49:10.700Z,98.5038
2023-04-16T08:50:11.681Z,98.4036
2023-04-16T08:51:12.336Z,98.3829
2023-04-16T08:52:13.047Z,98.3421
2023-04-16T08:53:13.699Z,98.2694
2023-04-16T08:54:14.378Z,98.1448
2023-04-16T08:55:15.090Z,98.1598
2023-04-16T08:56:15.813Z,98.1327
2023-04-16T08:57:16.484Z,98.1058
2023-04-16T08:58:17.145Z,97.9692
2023-04-16T08:59:17.798Z,97.8961
2023-04-16T09:00:18.497Z,97.8633
2023-04-16T09:01:19.347Z,97.9027
2023-04-16T09:02:20.131Z,97.9153
2023-04-16T09:03:21.197Z,97.9347
2023-04-16T09:04:22.018Z,97.9201
2023-04-16T09:05:22.789Z,97.9700
2023-04-16T09:06:23.443Z,98.0067
2023-04-16T09:07:24.266Z,98.0405
2023-04-16T09:08:24.967Z,97.9936
2023-04-16T09:09:25.654Z,97.9572
2023-04-16T09:10:26.576Z,97.9644
2023-04-16T09:11:27.194Z,98.0194
2023-04-16T09:12:27.877Z,98.0116
2023-04-16T09:13:28.515Z,97.9571
2023-04-16T09:14:29.317Z,97.8838
2023-04-16T09:15:29.970Z,97.8428
2023-04-16T09:16:30.784Z,97.9276
2023-04-16T09:17:31.450Z,97.9118
2023-04-16T09:18:32.063Z,97.9510
2023-04-16T09:19:32.728Z,98.0279
2023-04-16T09:20:33.351Z,98.0428
2023-04-16T09:21:33.987Z,98.0675
2023-04-16T09:22:34.641Z,98.1024
2023-04-16T09:23:35.330Z,98.1974
2023-04-16T09:24:35.941Z,98.2130
2023-04-16T09:25:36.926Z,98.1959
2023-04-16T09:26:37.562Z,98.2097
2023-04-16T09:27:38.256Z,98.1813
2023-04-16T09:28:38.904Z,98.1249
2023-04-16T09:29:39.600Z,98.0276
2023-04-16T09:30:40.313Z,97.9413
2023-04-16T09:31:40.994Z,97.9605
2023-04-16T09:32:41.798Z,97.9872
2023-04-16T09:33:42.450Z,98.0224
2023-04-16T09:34:43.236Z,98.0575
2023-04-16T09:35:43.956Z,98.1275
2023-04-16T09:36:44.628Z,98.1544
2023-04-16T09:37:45.284Z,98.1103
2023-04-16T09:38:45.986Z,98.0174
2023-04-16T09:39:46.646Z,97.8593
2023-04-16T09:40:47.401Z,97.7977
2023-04-16T09:41:48.224Z,97.7657
2023-04-16T09:42:49.222Z,97.8012
2023-04-16T09:43:49.823Z,97.8584
2023-04-16T09:44:50.454Z,97.8925
2023-04-16T09:45:51.260Z,97.8237
2023-04-16T09:46:51.965Z,97.8395
2023-04-16T09:47:52.739Z,97.8530
2023-04-16T09:48:53.414Z,97.8042
2023-04-16T09:49:54.923Z,97.8207
2023-04-16T09:50:55.580Z,97.8853
2023-04-16T09:51:56.275Z,97.9265
2023-04-16T09:52:56.926Z,97.9709
2023-04-16T09:53:57.614Z,97.9696
2023-04-16T09:54:58.278Z,98.0087
2023-04-16T09:55:59.062Z,97.9966
2023-04-16T09:56:59.795Z,98.0155
2023-04-16T09:58:00.503Z,97.9633
2023-04-16T09:59:01.177Z,97.9642
2023-04-16T10:00:01.816Z,97.9382
2023-04-16T10:01:02.592Z,97.9248
2023-04-16T10:02:14.600Z,97.9356
2023-04-16T10:03:04.794Z,97.9757
2023-04-16T10:04:05.655Z,98.0477
2023-04-16T10:05:06.499Z,98.1001
2023-04-16T10:06:07.171Z,98.0859
2023-04-16T10:07:07.858Z,98.0927
2023-04-16T10:08:08.546Z,98.1349
2023-04-16T10:09:09.452Z,98.1860
2023-04-16T10:10:10.510Z,98.2076
2023-04-16T10:11:11.206Z,98.2300
2023-04-16T10:12:12.063Z,98.2432
2023-04-16T10:13:12.863Z,98.2684
2023-04-16T10:14:13.617Z,98.2988
2023-04-16T10:15:14.387Z,98.2741
2023-04-16T10:16:15.181Z,98.2461
2023-04-16T10:17:15.846Z,98.2392
2023-04-16T10:18:16.521Z,98.2368
2023-04-16T10:19:17.121Z,98.1677
2023-04-16T10:20:17.792Z,98.1197
2023-04-16T10:21:18.538Z,98.0110
2023-04-16T10:22:19.168Z,97.9538
2023-04-16T10:23:19.743Z,97.9910
2023-04-16T10:24:20.359Z,97.9715
2023-04-16T10:25:21.016Z,97.9922
2023-04-16T10:26:21.677Z,97.9270
2023-04-16T10:27:22.326Z,97.9558
2023-04-16T10:28:23.114Z,97.9670
2023-04-16T10:29:23.797Z,97.9671
2023-04-16T10:30:24.519Z,97.9981
2023-04-16T10:31:25.233Z,97.9563
2023-04-16T10:32:26.180Z,97.8527
2023-04-16T10:33:26.894Z,97.8645
2023-04-16T10:34:27.545Z,97.9102
2023-04-16T10:35:28.225Z,97.9425
2023-04-16T10:36:28.999Z,97.9145
2023-04-16T10:37:29.625Z,97.9050
2023-04-16T10:38:30.339Z,97.8801
2023-04-16T10:39:30.992Z,97.8215
2023-04-16T10:40:31.640Z,97.7667
2023-04-16T10:41:32.363Z,97.8542
2023-04-16T10:42:33.063Z,97.8607
2023-04-16T10:43:33.753Z,97.7673
2023-04-16T10:44:34.370Z,97.7830
2023-04-16T10:45:35.233Z,97.7676
2023-04-16T10:46:35.992Z,97.6595
2023-04-16T10:47:36.664Z,97.5828
2023-04-16T10:48:48.660Z,97.5534
2023-04-16T10:49:38.712Z,97.5141
2023-04-16T10:50:39.587Z,97.5105
2023-04-16T10:51:40.370Z,97.4973
2023-04-16T10:52:41.074Z,97.5561
2023-04-16T10:53:41.732Z,97.6680
2023-04-16T10:54:42.398Z,97.6691
2023-04-16T10:55:42.998Z,97.6345
2023-04-16T10:56:43.689Z,97.6219
2023-04-16T10:57:44.378Z,97.5844
2023-04-16T10:58:45.019Z,97.6806
2023-04-16T10:59:45.663Z,97.7962
2023-04-16T11:00:46.340Z,97.8946
2023-04-16T11:01:47.041Z,97.8726
2023-04-16T11:02:47.833Z,97.8342
2023-04-16T11:03:48.617Z,97.8100
2023-04-16T11:04:50.007Z,97.7047
2023-04-16T11:05:50.842Z,97.7008
2023-04-16T11:06:51.532Z,97.6143
2023-04-16T11:07:52.506Z,97.4644
2023-04-16T11:08:54.915Z,97.3303
2023-04-16T11:09:53.814Z,97.3248
2023-04-16T11:10:54.487Z,97.4950
2023-04-16T11:11:55.181Z,97.4460
2023-04-16T11:12:55.857Z,97.3768
2023-04-16T11:13:56.530Z,97.3800
2023-04-16T11:14:57.198Z,97.5043
2023-04-16T11:15:57.861Z,97.6993
2023-04-16T11:16:58.499Z,97.6869
2023-04-16T11:17:59.176Z,97.4321
2023-04-16T11:18:59.810Z,97.2705
2023-04-16T11:20:00.545Z,97.1588
2023-04-16T11:21:01.275Z,96.8411
2023-04-16T11:22:01.898Z,96.8037
2023-04-16T11:23:02.579Z,96.7642
2023-04-16T11:24:03.133Z,96.3532
2023-04-16T11:25:03.778Z,96.3865
2023-04-16T11:26:04.426Z,96.4318
2023-04-16T11:27:05.176Z,96.4322
2023-04-16T11:28:05.828Z,96.6443
2023-04-16T11:29:06.516Z,96.7033
2023-04-16T11:30:07.174Z,96.6749
2023-04-16T11:31:07.861Z,96.6996
2023-04-16T11:32:08.545Z,96.8164
2023-04-16T11:33:09.245Z,96.7872
2023-04-16T11:34:09.900Z,96.7359
2023-04-16T11:35:10.547Z,96.8895
2023-04-16T11:36:11.139Z,97.0802
2023-04-16T11:37:11.885Z,97.3207
2023-04-16T11:38:12.555Z,97.5086
2023-04-16T11:39:13.229Z,97.4905
2023-04-16T11:40:14.020Z,97.2326
2023-04-16T11:41:14.680Z,97.1085
2023-04-16T11:42:15.436Z,97.1421
2023-04-16T11:43:16.179Z,97.2158
2023-04-16T11:44:16.829Z,97.2376
2023-04-16T11:45:17.902Z,97.2991
2023-04-16T11:46:27.398Z,97.2778
2023-04-16T11:47:20.271Z,97.3385
2023-04-16T11:48:21.031Z,97.4366
2023-04-16T11:49:21.740Z,97.5450
2023-04-16T11:50:22.757Z,97.6644
2023-04-16T11:51:23.810Z,97.7743
2023-04-16T11:52:24.991Z,97.7828
2023-04-16T11:53:25.752Z,97.7545
2023-04-16T11:54:26.455Z,97.7415
2023-04-16T11:55:27.178Z,97.6312
2023-04-16T11:56:27.850Z,97.6731
2023-04-16T11:57:28.549Z,97.6683
2023-04-16T11:58:29.263Z,97.7267
2023-04-16T11:59:29.970Z,97.8157
2023-04-16T12:00:30.665Z,97.8930
2023-04-16T12:01:31.408Z,97.9697
2023-04-16T12:02:32.313Z,98.0418
2023-04-16T12:03:33.348Z,98.1121
2023-04-16T12:04:34.204Z,98.0869
2023-04-16T12:05:34.954Z,98.0054
2023-04-16T12:06:35.695Z,97.8470
2023-04-16T12:07:36.494Z,97.7918
2023-04-16T12:08:37.272Z,97.6557
2023-04-16T12:09:40.569Z,97.6395
2023-04-16T12:10:39.048Z,97.5128
2023-04-16T12:11:39.747Z,97.4117
2023-04-16T12:12:40.480Z,97.3313
2023-04-16T12:13:41.218Z,97.1096